createdAt,value
2023-04-02T00:00:09.986Z,1.50
2023-04-02T00:02:59.209Z,2.00
2023-04-02T00:05:35.675Z,1.90
2023-04-02T00:08:18.854Z,1.85
2023-04-02T00:10:54.025Z,2.30
2023-04-02T00:13:41.781Z,2.17
2023-04-02T00:16:14.208Z,1.95
2023-04-02T00:18:50.376Z,2.08
2023-04-02T00:21:37.711Z,2.08
2023-04-02T00:24:23.135Z,2.45
2023-04-02T00:26:53.814Z,2.83
2023-04-02T00:29:22.586Z,3.20
2023-04-02T00:31:53.790Z,2.70
2023-04-02T00:34:40.541Z,3.03
2023-04-02T00:37:24.501Z,2.58
2023-04-02T00:40:02.967Z,2.70
2023-04-02T00:42:32.424Z,2.70
2023-04-02T00:45:02.984Z,2.75
2023-04-02T00:47:38.166Z,2.67
2023-04-02T00:50:19.031Z,2.50
2023-04-02T00:52:51.502Z,2.40
2023-04-02T00:55:27.948Z,2.55
2023-04-02T00:57:58.637Z,2.83
2023-04-02T01:00:37.408Z,2.35
2023-04-02T01:03:17.633Z,2.50
2023-04-02T01:05:51.007Z,2.42
2023-04-02T01:08:42.685Z,3.45
2023-04-02T01:11:34.899Z,2.60
2023-04-02T01:14:35.448Z,2.63
2023-04-02T01:17:43.456Z,2.67
2023-04-02T01:20:33.851Z,2.40
2023-04-02T01:23:08.408Z,2.67
2023-04-02T01:26:03.203Z,3.00
2023-04-02T01:28:53.214Z,2.67
2023-04-02T01:31:22.593Z,3.20
2023-04-02T01:33:51.291Z,2.78
2023-04-02T01:37:04.324Z,2.50
2023-04-02T01:40:03.896Z,2.42
2023-04-02T01:42:53.321Z,2.25
2023-04-02T01:45:24.042Z,2.38
2023-04-02T01:47:53.527Z,2.90
2023-04-02T01:50:53.001Z,3.33
2023-04-02T01:53:23.866Z,3.50
2023-04-02T01:55:55.532Z,3.60
2023-04-02T01:58:30.046Z,3.88
2023-04-02T02:01:15.743Z,3.42
2023-04-02T02:03:46.405Z,4.10
2023-04-02T02:06:18.084Z,5.47
2023-04-02T02:08:58.717Z,6.47
2023-04-02T02:11:29.519Z,6.20
2023-04-02T02:14:19.436Z,7.18
2023-04-02T02:16:48.519Z,7.35
2023-04-02T02:19:38.923Z,9.30
2023-04-02T02:22:29.125Z,8.63
2023-04-02T02:25:01.082Z,8.38
2023-04-02T02:27:29.160Z,9.48
2023-04-02T02:30:23.246Z,11.73
2023-04-02T02:33:04.734Z,14.55
2023-04-02T02:35:50.551Z,17.40
2023-04-02T02:38:49.544Z,16.83
2023-04-02T02:41:38.604Z,15.82
2023-04-02T02:44:29.725Z,15.98
2023-04-02T02:47:05.647Z,16.50
2023-04-02T02:49:40.287Z,18.13
2023-04-02T02:52:22.287Z,18.90
2023-04-02T02:55:01.980Z,19.05
2023-04-02T02:57:47.601Z,19.17
2023-04-02T03:00:20.242Z,19.90
2023-04-02T03:02:50.493Z,19.65
2023-04-02T03:05:24.441Z,21.35
2023-04-02T03:07:57.716Z,20.48
2023-04-02T03:10:39.794Z,19.40
2023-04-02T03:13:24.674Z,20.98
2023-04-02T03:16:03.465Z,20.65
2023-04-02T03:18:45.439Z,20.13
2023-04-02T03:21:26.565Z,21.33
2023-04-02T03:24:23.640Z,21.00
2023-04-02T03:27:28.958Z,20.30
2023-04-02T03:30:31.917Z,19.48
2023-04-02T03:33:11.877Z,20.10
2023-04-02T03:36:24.426Z,20.35
2023-04-02T03:39:45.318Z,19.25
2023-04-02T03:42:28.678Z,19.65
2023-04-02T03:45:06.519Z,20.77
2023-04-02T03:47:46.757Z,19.80
2023-04-02T03:50:38.278Z,19.38
2023-04-02T03:53:07.437Z,21.42
2023-04-02T03:55:41.840Z,22.40
2023-04-02T03:58:44.872Z,20.98
2023-04-02T04:01:34.926Z,21.02
2023-04-02T04:04:19.862Z,22.33
2023-04-02T04:06:52.820Z,21.13
2023-04-02T04:09:27.859Z,22.30
2023-04-02T04:12:35.227Z,21.88
2023-04-02T04:15:37.117Z,20.45
2023-04-02T04:18:35.228Z,21.58
2023-04-02T04:21:30.706Z,20.77
2023-04-02T04:24:16.659Z,21.70
2023-04-02T04:26:53.955Z,21.05
2023-04-02T04:29:46.016Z,24.17
2023-04-02T04:32:39.432Z,22.77
2023-04-02T04:35:29.708Z,22.52
2023-04-02T04:38:08.458Z,22.80
2023-04-02T04:40:43.064Z,22.08
2023-04-02T04:43:22.339Z,21.85
2023-04-02T04:46:09.350Z,20.65
2023-04-02T04:48:47.135Z,24.38
2023-04-02T04:51:26.545Z,25.05
2023-04-02T04:53:57.031Z,22.77
2023-04-02T04:56:32.212Z,23.40
2023-04-02T04:59:25.418Z,23.73
2023-04-02T05:02:09.346Z,20.85
2023-04-02T05:04:42.870Z,21.30
2023-04-02T05:07:37.221Z,20.63
2023-04-02T05:10:28.000Z,19.85
2023-04-02T05:13:11.589Z,21.52
2023-04-02T05:15:47.649Z,19.52
2023-04-02T05:18:40.038Z,19.85
2023-04-02T05:21:34.639Z,19.33
2023-04-02T05:24:26.647Z,18.15
2023-04-02T05:27:02.192Z,17.77
2023-04-02T05:29:37.735Z,18.05
2023-04-02T05:32:14.844Z,20.02
2023-04-02T05:34:49.889Z,21.65
2023-04-02T05:37:22.420Z,21.00
2023-04-02T05:39:57.462Z,24.35
2023-04-02T05:42:31.696Z,23.45
2023-04-02T19:09:41.891Z,2.57
2023-04-02T19:12:17.418Z,3.67
2023-04-02T19:14:50.254Z,4.28
2023-04-02T19:17:34.122Z,4.28
2023-04-02T19:20:08.401Z,3.95
2023-04-02T19:22:47.267Z,3.28
2023-04-02T19:25:34.731Z,2.33
2023-04-02T19:28:15.149Z,2.75
2023-04-02T19:31:25.131Z,2.88
2023-04-02T19:34:00.230Z,2.50
2023-04-02T19:36:34.668Z,2.05
2023-04-02T19:39:17.867Z,2.40
2023-04-02T19:41:54.604Z,2.25
2023-04-02T19:44:22.971Z,2.70
2023-04-02T19:46:51.989Z,3.30
2023-04-02T19:49:41.153Z,3.20
2023-04-02T19:52:24.068Z,3.22
2023-04-02T19:54:56.135Z,4.07
2023-04-02T19:57:24.425Z,4.50
2023-04-02T19:59:52.826Z,3.88
2023-04-02T20:02:21.300Z,3.70
2023-04-02T20:04:49.605Z,4.03
2023-04-02T20:07:17.880Z,4.55
2023-04-02T20:09:46.520Z,5.00
2023-04-02T20:12:14.859Z,5.53
2023-04-02T20:14:43.251Z,5.75
2023-04-02T20:17:11.450Z,5.65
2023-04-02T20:19:39.603Z,6.70
2023-04-02T20:22:07.864Z,7.15
2023-04-02T20:24:36.228Z,6.88
2023-04-02T20:27:04.594Z,7.03
2023-04-02T20:29:59.797Z,8.13
2023-04-02T20:32:31.480Z,8.25
2023-04-02T20:35:00.034Z,6.90
2023-04-02T20:37:28.604Z,5.82
2023-04-02T20:39:59.722Z,5.45
2023-04-02T20:42:28.502Z,5.63
2023-04-02T20:44:57.084Z,7.25
2023-04-02T20:47:25.483Z,5.60
2023-04-02T20:49:53.850Z,12.05
2023-04-02T20:52:22.566Z,13.32
2023-04-02T20:54:51.460Z,8.13
2023-04-02T20:57:22.363Z,7.13
2023-04-02T20:59:50.766Z,5.25
2023-04-02T21:02:19.102Z,5.82
2023-04-02T21:04:47.508Z,5.75
2023-04-02T21:07:16.081Z,4.63
2023-04-02T21:09:44.201Z,5.28
2023-04-02T21:12:12.649Z,6.72
2023-04-02T21:14:41.083Z,6.60
2023-04-02T21:17:09.278Z,6.07
2023-04-02T21:19:37.449Z,5.07
2023-04-02T21:22:05.723Z,4.50
2023-04-02T21:24:33.917Z,3.97
2023-04-02T21:27:02.119Z,4.07
2023-04-02T21:29:30.759Z,3.60
2023-04-02T21:32:01.543Z,2.97
2023-04-02T21:34:34.159Z,2.72
2023-04-02T21:37:02.653Z,2.83
2023-04-02T21:39:31.639Z,3.30
2023-04-02T21:41:59.937Z,3.20
2023-04-02T21:44:28.220Z,2.95
2023-04-02T21:46:57.003Z,3.17
2023-04-02T21:49:26.753Z,3.22
2023-04-02T21:51:55.028Z,19.27
2023-04-02T21:54:23.562Z,19.33
2023-04-02T21:56:53.034Z,12.55
2023-04-02T21:59:21.229Z,8.68
2023-04-02T22:01:51.391Z,4.90
2023-04-02T22:04:25.457Z,3.97
2023-04-02T22:06:54.268Z,9.07
2023-04-02T22:09:25.030Z,5.95
2023-04-02T22:11:56.440Z,6.05
2023-04-02T22:14:24.601Z,5.45
2023-04-02T22:16:52.819Z,3.92
2023-04-02T22:19:21.775Z,3.97
2023-04-02T22:21:50.419Z,4.90
2023-04-02T22:24:19.746Z,4.20
2023-04-02T22:26:48.614Z,3.67
2023-04-02T22:29:17.377Z,3.75
2023-04-02T22:31:46.811Z,3.78
2023-04-02T22:34:15.050Z,4.10
2023-04-02T22:36:43.290Z,4.55
2023-04-02T22:39:12.628Z,4.93
2023-04-02T22:41:41.429Z,4.57
2023-04-02T22:44:14.575Z,4.80
2023-04-02T22:46:42.780Z,4.95
2023-04-02T22:49:12.403Z,5.10
2023-04-02T22:51:40.453Z,4.90
2023-04-02T22:54:08.496Z,4.72
2023-04-02T22:56:37.793Z,4.70
2023-04-02T22:59:06.176Z,5.22
2023-04-02T23:01:36.481Z,4.88
2023-04-02T23:04:05.654Z,4.82
2023-04-02T23:06:34.133Z,4.70
2023-04-02T23:09:02.435Z,5.25
2023-04-02T23:11:30.712Z,5.22
2023-04-02T23:13:59.511Z,5.38
2023-04-02T23:16:29.910Z,5.45
2023-04-02T23:18:58.549Z,5.10
2023-04-02T23:21:27.857Z,5.07
2023-04-02T23:23:56.688Z,4.93
2023-04-02T23:26:31.562Z,4.75
2023-04-02T23:29:01.011Z,4.00
2023-04-02T23:31:29.401Z,4.90
2023-04-02T23:33:57.654Z,5.30
2023-04-02T23:36:25.785Z,6.13
2023-04-02T23:38:56.103Z,6.05
2023-04-02T23:41:27.226Z,5.60
2023-04-02T23:43:56.934Z,5.65
2023-04-02T23:46:26.400Z,5.72
2023-04-02T23:48:56.210Z,6.68
2023-04-02T23:51:25.048Z,5.80
2023-04-02T23:53:55.658Z,5.43
2023-04-02T23:56:25.022Z,5.43
2023-04-02T23:58:53.294Z,5.53
